sensor_id;sensor_type;location;lat;lon;timestamp;P1;durP1;ratioP1;P2;durP2;ratioP2
11054;SDS011;5580;50.106;8.702;2022-09-29T00:00:07;11.00;;;5.40;;
11054;SDS011;5580;50.106;8.702;2022-09-29T00:02:34;8.30;;;5.33;;
11054;SDS011;5580;50.106;8.702;2022-09-29T00:04:59;9.47;;;5.67;;
11054;SDS011;5580;50.106;8.702;2022-09-29T00:07:25;10.23;;;5.77;;
11054;SDS011;5580;50.106;8.702;2022-09-29T00:09:50;10.33;;;5.40;;
11054;SDS011;5580;50.106;8.702;2022-09-29T00:12:16;11.17;;;5.73;;
11054;SDS011;5580;50.106;8.702;2022-09-29T00:14:41;11.10;;;5.80;;
11054;SDS011;5580;50.106;8.702;2022-09-29T00:17:07;9.10;;;5.83;;
11054;SDS011;5580;50.106;8.702;2022-09-29T00:19:33;8.93;;;5.57;;
11054;SDS011;5580;50.106;8.702;2022-09-29T00:21:58;12.33;;;5.53;;
11054;SDS011;5580;50.106;8.702;2022-09-29T00:24:24;12.63;;;5.50;;
11054;SDS011;5580;50.106;8.702;2022-09-29T00:26:50;10.97;;;5.87;;
11054;SDS011;5580;50.106;8.702;2022-09-29T00:29:15;9.80;;;5.63;;
11054;SDS011;5580;50.106;8.702;2022-09-29T00:31:41;11.40;;;5.63;;
11054;SDS011;5580;50.106;8.702;2022-09-29T00:34:07;10.47;;;6.20;;
11054;SDS011;5580;50.106;8.702;2022-09-29T00:36:32;11.70;;;5.90;;
11054;SDS011;5580;50.106;8.702;2022-09-29T00:38:58;8.57;;;5.30;;
11054;SDS011;5580;50.106;8.702;2022-09-29T00:41:25;12.40;;;6.13;;
11054;SDS011;5580;50.106;8.702;2022-09-29T00:46:36;13.30;;;6.40;;
11054;SDS011;5580;50.106;8.702;2022-09-29T00:49:26;10.77;;;6.50;;
11054;SDS011;5580;50.106;8.702;2022-09-29T00:54:49;10.40;;;6.53;;
11054;SDS011;5580;50.106;8.702;2022-09-29T00:57:21;10.70;;;6.23;;
11054;SDS011;5580;50.106;8.702;2022-09-29T01:02:33;11.80;;;6.73;;
11054;SDS011;5580;50.106;8.702;2022-09-29T01:05:02;11.00;;;6.60;;
11054;SDS011;5580;50.106;8.702;2022-09-29T01:07:33;11.77;;;6.40;;
11054;SDS011;5580;50.106;8.702;2022-09-29T01:09:59;11.23;;;6.30;;
11054;SDS011;5580;50.106;8.702;2022-09-29T01:12:25;11.73;;;5.90;;
11054;SDS011;5580;50.106;8.702;2022-09-29T01:14:51;8.57;;;5.70;;
11054;SDS011;5580;50.106;8.702;2022-09-29T01:17:18;11.03;;;6.27;;
11054;SDS011;5580;50.106;8.702;2022-09-29T01:25:47;9.80;;;6.10;;
11054;SDS011;5580;50.106;8.702;2022-09-29T01:34:29;13.57;;;6.87;;
11054;SDS011;5580;50.106;8.702;2022-09-29T01:40:20;9.63;;;6.60;;
11054;SDS011;5580;50.106;8.702;2022-09-29T01:43:00;15.33;;;7.30;;
11054;SDS011;5580;50.106;8.702;2022-09-29T01:45:34;13.03;;;7.10;;
11054;SDS011;5580;50.106;8.702;2022-09-29T01:48:05;14.17;;;6.73;;
11054;SDS011;5580;50.106;8.702;2022-09-29T01:50:41;10.60;;;6.70;;
11054;SDS011;5580;50.106;8.702;2022-09-29T01:53:14;10.47;;;6.43;;
11054;SDS011;5580;50.106;8.702;2022-09-29T01:55:48;11.57;;;6.97;;
11054;SDS011;5580;50.106;8.702;2022-09-29T01:58:18;10.90;;;7.13;;
11054;SDS011;5580;50.106;8.702;2022-09-29T02:00:55;13.50;;;7.13;;
11054;SDS011;5580;50.106;8.702;2022-09-29T02:03:26;13.10;;;7.50;;
11054;SDS011;5580;50.106;8.702;2022-09-29T02:06:02;15.20;;;7.83;;
11054;SDS011;5580;50.106;8.702;2022-09-29T02:08:37;14.03;;;7.30;;
11054;SDS011;5580;50.106;8.702;2022-09-29T02:11:05;12.20;;;7.33;;
11054;SDS011;5580;50.106;8.702;2022-09-29T02:13:34;12.47;;;7.20;;
11054;SDS011;5580;50.106;8.702;2022-09-29T02:16:08;13.60;;;7.10;;
11054;SDS011;5580;50.106;8.702;2022-09-29T02:18:39;12.67;;;7.30;;
11054;SDS011;5580;50.106;8.702;2022-09-29T02:21:15;12.83;;;7.70;;
11054;SDS011;5580;50.106;8.702;2022-09-29T02:23:40;13.27;;;7.30;;
11054;SDS011;5580;50.106;8.702;2022-09-29T02:26:06;10.97;;;6.73;;
11054;SDS011;5580;50.106;8.702;2022-09-29T02:28:32;13.53;;;7.67;;
11054;SDS011;5580;50.106;8.702;2022-09-29T02:30:58;12.87;;;7.60;;
11054;SDS011;5580;50.106;8.702;2022-09-29T02:33:24;12.93;;;7.47;;
11054;SDS011;5580;50.106;8.702;2022-09-29T02:35:53;11.97;;;7.43;;
11054;SDS011;5580;50.106;8.702;2022-09-29T02:38:42;13.93;;;7.40;;
11054;SDS011;5580;50.106;8.702;2022-09-29T02:42:05;15.90;;;8.30;;
11054;SDS011;5580;50.106;8.702;2022-09-29T02:46:49;10.10;;;6.90;;
11054;SDS011;5580;50.106;8.702;2022-09-29T02:52:09;14.57;;;7.37;;
11054;SDS011;5580;50.106;8.702;2022-09-29T02:57:41;12.40;;;7.80;;
11054;SDS011;5580;50.106;8.702;2022-09-29T03:00:23;11.77;;;7.27;;
11054;SDS011;5580;50.106;8.702;2022-09-29T03:02:51;11.33;;;7.13;;
11054;SDS011;5580;50.106;8.702;2022-09-29T03:05:18;12.27;;;7.00;;
11054;SDS011;5580;50.106;8.702;2022-09-29T03:07:45;14.40;;;7.13;;
11054;SDS011;5580;50.106;8.702;2022-09-29T03:10:11;10.40;;;7.10;;
11054;SDS011;5580;50.106;8.702;2022-09-29T03:12:38;13.63;;;7.60;;
11054;SDS011;5580;50.106;8.702;2022-09-29T03:15:04;13.97;;;8.03;;
11054;SDS011;5580;50.106;8.702;2022-09-29T03:17:31;14.03;;;8.40;;
11054;SDS011;5580;50.106;8.702;2022-09-29T03:19:56;15.43;;;8.13;;
11054;SDS011;5580;50.106;8.702;2022-09-29T03:22:22;13.43;;;7.83;;
11054;SDS011;5580;50.106;8.702;2022-09-29T03:24:48;12.03;;;7.50;;
11054;SDS011;5580;50.106;8.702;2022-09-29T03:27:13;13.07;;;7.80;;
11054;SDS011;5580;50.106;8.702;2022-09-29T03:29:39;12.73;;;7.70;;
11054;SDS011;5580;50.106;8.702;2022-09-29T03:32:05;11.90;;;7.63;;
11054;SDS011;5580;50.106;8.702;2022-09-29T03:34:31;15.40;;;7.67;;
11054;SDS011;5580;50.106;8.702;2022-09-29T03:36:57;13.97;;;7.80;;
11054;SDS011;5580;50.106;8.702;2022-09-29T03:39:23;13.40;;;8.13;;
11054;SDS011;5580;50.106;8.702;2022-09-29T03:41:49;16.60;;;9.20;;
11054;SDS011;5580;50.106;8.702;2022-09-29T03:44:15;13.53;;;8.50;;
11054;SDS011;5580;50.106;8.702;2022-09-29T03:46:41;14.10;;;8.80;;
11054;SDS011;5580;50.106;8.702;2022-09-29T03:49:10;13.73;;;8.83;;
11054;SDS011;5580;50.106;8.702;2022-09-29T03:51:36;15.33;;;9.63;;
11054;SDS011;5580;50.106;8.702;2022-09-29T03:54:02;19.77;;;11.53;;
11054;SDS011;5580;50.106;8.702;2022-09-29T03:56:28;24.30;;;13.13;;
11054;SDS011;5580;50.106;8.702;2022-09-29T03:58:55;26.27;;;13.17;;
11054;SDS011;5580;50.106;8.702;2022-09-29T04:01:20;21.03;;;10.97;;
11054;SDS011;5580;50.106;8.702;2022-09-29T04:03:46;24.37;;;12.57;;
11054;SDS011;5580;50.106;8.702;2022-09-29T04:06:12;27.00;;;13.20;;
11054;SDS011;5580;50.106;8.702;2022-09-29T04:08:37;31.50;;;14.00;;
11054;SDS011;5580;50.106;8.702;2022-09-29T04:11:03;25.03;;;13.27;;
11054;SDS011;5580;50.106;8.702;2022-09-29T04:13:30;27.30;;;15.13;;
11054;SDS011;5580;50.106;8.702;2022-09-29T04:15:57;26.60;;;13.60;;
11054;SDS011;5580;50.106;8.702;2022-09-29T04:18:24;29.07;;;14.47;;
11054;SDS011;5580;50.106;8.702;2022-09-29T04:20:49;24.40;;;14.53;;
11054;SDS011;5580;50.106;8.702;2022-09-29T04:23:15;25.67;;;14.47;;
11054;SDS011;5580;50.106;8.702;2022-09-29T04:25:42;23.23;;;13.93;;
11054;SDS011;5580;50.106;8.702;2022-09-29T04:28:09;24.57;;;14.33;;
11054;SDS011;5580;50.106;8.702;2022-09-29T04:30:35;25.80;;;14.10;;
11054;SDS011;5580;50.106;8.702;2022-09-29T04:33:01;25.20;;;14.37;;
11054;SDS011;5580;50.106;8.702;2022-09-29T04:35:27;24.53;;;14.57;;
11054;SDS011;5580;50.106;8.702;2022-09-29T04:37:56;32.50;;;14.80;;
11054;SDS011;5580;50.106;8.702;2022-09-29T04:40:22;25.30;;;14.47;;
11054;SDS011;5580;50.106;8.702;2022-09-29T04:42:48;24.07;;;14.70;;
11054;SDS011;5580;50.106;8.702;2022-09-29T04:45:14;23.90;;;14.43;;
11054;SDS011;5580;50.106;8.702;2022-09-29T04:47:40;26.93;;;14.53;;
11054;SDS011;5580;50.106;8.702;2022-09-29T04:50:05;28.07;;;14.53;;
11054;SDS011;5580;50.106;8.702;2022-09-29T04:52:31;28.27;;;15.13;;
11054;SDS011;5580;50.106;8.702;2022-09-29T04:54:57;49.03;;;15.70;;
11054;SDS011;5580;50.106;8.702;2022-09-29T04:57:23;25.70;;;15.83;;
11054;SDS011;5580;50.106;8.702;2022-09-29T04:59:48;26.73;;;15.53;;
11054;SDS011;5580;50.106;8.702;2022-09-29T05:02:16;33.80;;;15.97;;
11054;SDS011;5580;50.106;8.702;2022-09-29T05:04:45;31.40;;;15.83;;
11054;SDS011;5580;50.106;8.702;2022-09-29T05:07:11;25.83;;;15.97;;
11054;SDS011;5580;50.106;8.702;2022-09-29T05:09:38;25.57;;;15.90;;
11054;SDS011;5580;50.106;8.702;2022-09-29T05:12:03;28.87;;;16.17;;
11054;SDS011;5580;50.106;8.702;2022-09-29T05:14:29;26.80;;;16.13;;
11054;SDS011;5580;50.106;8.702;2022-09-29T05:16:55;45.53;;;16.13;;
11054;SDS011;5580;50.106;8.702;2022-09-29T05:19:20;23.50;;;15.00;;
11054;SDS011;5580;50.106;8.702;2022-09-29T05:21:46;33.40;;;16.57;;
11054;SDS011;5580;50.106;8.702;2022-09-29T05:24:11;31.00;;;15.97;;
11054;SDS011;5580;50.106;8.702;2022-09-29T05:26:37;29.33;;;15.87;;
11054;SDS011;5580;50.106;8.702;2022-09-29T05:29:03;27.90;;;16.03;;
11054;SDS011;5580;50.106;8.702;2022-09-29T05:31:28;27.13;;;16.43;;
11054;SDS011;5580;50.106;8.702;2022-09-29T05:33:55;28.80;;;16.57;;
11054;SDS011;5580;50.106;8.702;2022-09-29T05:36:21;34.23;;;16.97;;
11054;SDS011;5580;50.106;8.702;2022-09-29T05:38:47;25.83;;;16.33;;
11054;SDS011;5580;50.106;8.702;2022-09-29T05:41:13;25.77;;;16.10;;
11054;SDS011;5580;50.106;8.702;2022-09-29T05:43:42;26.67;;;16.13;;
11054;SDS011;5580;50.106;8.702;2022-09-29T05:46:09;29.27;;;16.37;;
11054;SDS011;5580;50.106;8.702;2022-09-29T05:48:34;29.20;;;17.17;;
11054;SDS011;5580;50.106;8.702;2022-09-29T05:51:05;26.20;;;16.67;;
11054;SDS011;5580;50.106;8.702;2022-09-29T05:53:33;28.17;;;17.03;;
11054;SDS011;5580;50.106;8.702;2022-09-29T05:56:02;26.30;;;16.93;;
11054;SDS011;5580;50.106;8.702;2022-09-29T05:58:29;30.23;;;16.80;;
11054;SDS011;5580;50.106;8.702;2022-09-29T06:00:55;28.00;;;16.20;;
11054;SDS011;5580;50.106;8.702;2022-09-29T06:03:20;29.40;;;15.97;;
11054;SDS011;5580;50.106;8.702;2022-09-29T06:05:46;29.10;;;16.07;;
11054;SDS011;5580;50.106;8.702;2022-09-29T06:08:12;26.40;;;15.87;;
11054;SDS011;5580;50.106;8.702;2022-09-29T06:10:37;32.20;;;16.77;;
11054;SDS011;5580;50.106;8.702;2022-09-29T06:13:03;31.10;;;16.63;;
11054;SDS011;5580;50.106;8.702;2022-09-29T06:15:28;29.90;;;16.47;;
11054;SDS011;5580;50.106;8.702;2022-09-29T06:17:54;27.87;;;16.63;;
11054;SDS011;5580;50.106;8.702;2022-09-29T06:20:21;28.40;;;16.53;;
11054;SDS011;5580;50.106;8.702;2022-09-29T06:22:47;32.23;;;18.03;;
11054;SDS011;5580;50.106;8.702;2022-09-29T06:25:15;30.47;;;18.47;;
11054;SDS011;5580;50.106;8.702;2022-09-29T06:27:41;28.20;;;17.30;;
11054;SDS011;5580;50.106;8.702;2022-09-29T06:30:06;29.20;;;16.20;;
11054;SDS011;5580;50.106;8.702;2022-09-29T06:32:32;28.57;;;16.40;;
11054;SDS011;5580;50.106;8.702;2022-09-29T06:34:59;26.63;;;15.93;;
11054;SDS011;5580;50.106;8.702;2022-09-29T06:37:44;26.73;;;16.87;;
11054;SDS011;5580;50.106;8.702;2022-09-29T06:40:10;27.57;;;16.13;;
11054;SDS011;5580;50.106;8.702;2022-09-29T06:42:37;27.63;;;17.03;;
11054;SDS011;5580;50.106;8.702;2022-09-29T06:45:02;27.47;;;15.63;;
11054;SDS011;5580;50.106;8.702;2022-09-29T06:47:28;27.30;;;15.83;;
11054;SDS011;5580;50.106;8.702;2022-09-29T06:49:54;25.00;;;15.17;;
11054;SDS011;5580;50.106;8.702;2022-09-29T06:52:19;25.07;;;15.17;;
11054;SDS011;5580;50.106;8.702;2022-09-29T06:54:45;25.27;;;15.30;;
11054;SDS011;5580;50.106;8.702;2022-09-29T06:57:11;23.87;;;15.17;;
11054;SDS011;5580;50.106;8.702;2022-09-29T06:59:37;23.20;;;14.93;;
11054;SDS011;5580;50.106;8.702;2022-09-29T07:02:03;22.83;;;14.73;;
11054;SDS011;5580;50.106;8.702;2022-09-29T07:04:29;23.57;;;15.07;;
11054;SDS011;5580;50.106;8.702;2022-09-29T07:06:54;27.00;;;16.20;;
11054;SDS011;5580;50.106;8.702;2022-09-29T07:09:20;22.60;;;14.97;;
11054;SDS011;5580;50.106;8.702;2022-09-29T07:11:48;25.93;;;16.53;;
11054;SDS011;5580;50.106;8.702;2022-09-29T07:14:15;22.70;;;15.43;;
11054;SDS011;5580;50.106;8.702;2022-09-29T07:16:42;25.13;;;15.70;;
11054;SDS011;5580;50.106;8.702;2022-09-29T07:19:08;27.13;;;16.33;;
11054;SDS011;5580;50.106;8.702;2022-09-29T07:21:34;29.63;;;16.63;;
11054;SDS011;5580;50.106;8.702;2022-09-29T07:23:59;26.97;;;16.30;;
11054;SDS011;5580;50.106;8.702;2022-09-29T07:26:25;27.93;;;16.70;;
11054;SDS011;5580;50.106;8.702;2022-09-29T07:28:51;29.17;;;17.27;;
11054;SDS011;5580;50.106;8.702;2022-09-29T07:31:18;26.50;;;16.47;;
11054;SDS011;5580;50.106;8.702;2022-09-29T07:33:45;30.20;;;17.73;;
11054;SDS011;5580;50.106;8.702;2022-09-29T07:36:13;30.93;;;18.37;;
11054;SDS011;5580;50.106;8.702;2022-09-29T07:38:40;31.13;;;18.23;;
11054;SDS011;5580;50.106;8.702;2022-09-29T07:41:07;29.90;;;17.97;;
11054;SDS011;5580;50.106;8.702;2022-09-29T07:43:35;28.47;;;18.20;;
11054;SDS011;5580;50.106;8.702;2022-09-29T07:46:00;29.03;;;18.23;;
11054;SDS011;5580;50.106;8.702;2022-09-29T07:48:26;28.73;;;17.37;;
11054;SDS011;5580;50.106;8.702;2022-09-29T07:51:04;27.00;;;17.10;;
11054;SDS011;5580;50.106;8.702;2022-09-29T07:53:31;29.87;;;18.10;;
11054;SDS011;5580;50.106;8.702;2022-09-29T07:56:01;29.50;;;17.30;;
11054;SDS011;5580;50.106;8.702;2022-09-29T07:58:31;29.53;;;17.60;;
11054;SDS011;5580;50.106;8.702;2022-09-29T08:00:57;28.43;;;16.80;;
11054;SDS011;5580;50.106;8.702;2022-09-29T08:03:23;26.23;;;15.43;;
11054;SDS011;5580;50.106;8.702;2022-09-29T08:05:50;27.13;;;16.13;;
11054;SDS011;5580;50.106;8.702;2022-09-29T08:08:17;25.50;;;16.00;;
11054;SDS011;5580;50.106;8.702;2022-09-29T08:10:42;24.80;;;16.30;;
11054;SDS011;5580;50.106;8.702;2022-09-29T08:13:08;26.90;;;16.07;;
11054;SDS011;5580;50.106;8.702;2022-09-29T08:15:34;24.97;;;16.63;;
11054;SDS011;5580;50.106;8.702;2022-09-29T08:17:59;25.10;;;16.43;;
11054;SDS011;5580;50.106;8.702;2022-09-29T08:20:25;27.40;;;16.77;;
11054;SDS011;5580;50.106;8.702;2022-09-29T08:22:51;22.73;;;15.67;;
11054;SDS011;5580;50.106;8.702;2022-09-29T08:25:17;27.77;;;16.57;;
11054;SDS011;5580;50.106;8.702;2022-09-29T08:27:43;28.47;;;17.07;;
11054;SDS011;5580;50.106;8.702;2022-09-29T08:30:09;25.17;;;16.83;;
11054;SDS011;5580;50.106;8.702;2022-09-29T08:32:36;24.20;;;15.97;;
11054;SDS011;5580;50.106;8.702;2022-09-29T08:35:02;25.07;;;16.07;;
11054;SDS011;5580;50.106;8.702;2022-09-29T08:37:28;26.83;;;16.13;;
11054;SDS011;5580;50.106;8.702;2022-09-29T08:39:55;28.20;;;17.03;;
11054;SDS011;5580;50.106;8.702;2022-09-29T08:44:50;24.27;;;16.43;;
11054;SDS011;5580;50.106;8.702;2022-09-29T08:47:33;23.73;;;16.23;;
11054;SDS011;5580;50.106;8.702;2022-09-29T08:50:03;24.90;;;16.37;;
11054;SDS011;5580;50.106;8.702;2022-09-29T08:52:41;25.17;;;16.50;;
11054;SDS011;5580;50.106;8.702;2022-09-29T08:55:20;24.23;;;16.20;;
11054;SDS011;5580;50.106;8.702;2022-09-29T08:58:07;26.70;;;16.87;;
11054;SDS011;5580;50.106;8.702;2022-09-29T09:00:42;24.43;;;16.93;;
11054;SDS011;5580;50.106;8.702;2022-09-29T09:06:24;29.13;;;18.70;;
11054;SDS011;5580;50.106;8.702;2022-09-29T09:09:06;29.47;;;19.70;;
11054;SDS011;5580;50.106;8.702;2022-09-29T09:16:53;27.40;;;18.30;;
11054;SDS011;5580;50.106;8.702;2022-09-29T09:28:19;27.43;;;19.53;;
11054;SDS011;5580;50.106;8.702;2022-09-29T09:30:48;30.93;;;19.63;;
11054;SDS011;5580;50.106;8.702;2022-09-29T09:33:40;25.50;;;18.67;;
11054;SDS011;5580;50.106;8.702;2022-09-29T09:36:34;27.63;;;18.97;;
11054;SDS011;5580;50.106;8.702;2022-09-29T09:39:08;26.53;;;17.50;;
11054;SDS011;5580;50.106;8.702;2022-09-29T09:41:39;27.13;;;18.00;;
11054;SDS011;5580;50.106;8.702;2022-09-29T09:47:23;24.80;;;17.37;;
11054;SDS011;5580;50.106;8.702;2022-09-29T09:50:13;22.80;;;16.17;;
11054;SDS011;5580;50.106;8.702;2022-09-29T09:52:45;24.37;;;17.03;;
11054;SDS011;5580;50.106;8.702;2022-09-29T09:55:32;25.57;;;16.07;;
11054;SDS011;5580;50.106;8.702;2022-09-29T10:00:50;25.47;;;17.07;;
11054;SDS011;5580;50.106;8.702;2022-09-29T10:03:22;23.87;;;15.97;;
11054;SDS011;5580;50.106;8.702;2022-09-29T10:05:47;24.07;;;16.17;;
11054;SDS011;5580;50.106;8.702;2022-09-29T10:11:02;26.47;;;18.03;;
11054;SDS011;5580;50.106;8.702;2022-09-29T10:13:29;26.37;;;17.40;;
11054;SDS011;5580;50.106;8.702;2022-09-29T10:15:57;25.73;;;16.80;;
11054;SDS011;5580;50.106;8.702;2022-09-29T10:18:42;26.07;;;16.10;;
11054;SDS011;5580;50.106;8.702;2022-09-29T10:23:53;23.00;;;15.23;;
11054;SDS011;5580;50.106;8.702;2022-09-29T10:26:22;21.20;;;14.47;;
11054;SDS011;5580;50.106;8.702;2022-09-29T10:28:54;21.03;;;13.17;;
11054;SDS011;5580;50.106;8.702;2022-09-29T10:33:53;20.67;;;13.93;;
11054;SDS011;5580;50.106;8.702;2022-09-29T10:36:26;21.93;;;13.80;;
11054;SDS011;5580;50.106;8.702;2022-09-29T10:38:56;19.17;;;13.13;;
11054;SDS011;5580;50.106;8.702;2022-09-29T10:41:22;20.20;;;12.70;;
11054;SDS011;5580;50.106;8.702;2022-09-29T10:43:49;17.33;;;12.17;;
11054;SDS011;5580;50.106;8.702;2022-09-29T10:46:59;20.83;;;12.47;;
11054;SDS011;5580;50.106;8.702;2022-09-29T10:49:14;17.80;;;11.80;;
11054;SDS011;5580;50.106;8.702;2022-09-29T10:52:04;17.90;;;11.70;;
11054;SDS011;5580;50.106;8.702;2022-09-29T10:54:59;18.07;;;12.07;;
11054;SDS011;5580;50.106;8.702;2022-09-29T10:57:28;21.10;;;12.27;;
11054;SDS011;5580;50.106;8.702;2022-09-29T10:59:56;16.27;;;10.33;;
11054;SDS011;5580;50.106;8.702;2022-09-29T11:02:29;18.50;;;10.93;;
11054;SDS011;5580;50.106;8.702;2022-09-29T11:05:00;18.13;;;10.80;;
11054;SDS011;5580;50.106;8.702;2022-09-29T11:07:29;16.90;;;10.80;;
11054;SDS011;5580;50.106;8.702;2022-09-29T11:09:58;14.90;;;9.73;;
11054;SDS011;5580;50.106;8.702;2022-09-29T11:12:28;15.83;;;10.40;;
11054;SDS011;5580;50.106;8.702;2022-09-29T11:14:56;17.40;;;10.93;;
11054;SDS011;5580;50.106;8.702;2022-09-29T11:17:30;17.30;;;11.43;;
11054;SDS011;5580;50.106;8.702;2022-09-29T11:20:03;16.40;;;10.93;;
11054;SDS011;5580;50.106;8.702;2022-09-29T11:25:16;17.80;;;9.80;;
11054;SDS011;5580;50.106;8.702;2022-09-29T11:30:56;15.77;;;9.80;;
11054;SDS011;5580;50.106;8.702;2022-09-29T11:39:28;16.40;;;9.00;;
11054;SDS011;5580;50.106;8.702;2022-09-29T11:45:07;15.50;;;8.40;;
11054;SDS011;5580;50.106;8.702;2022-09-29T11:57:28;16.53;;;8.40;;
11054;SDS011;5580;50.106;8.702;2022-09-29T12:05:07;11.17;;;7.10;;
11054;SDS011;5580;50.106;8.702;2022-09-29T12:18:31;8.83;;;5.53;;
11054;SDS011;5580;50.106;8.702;2022-09-29T12:21:14;10.33;;;5.70;;
11054;SDS011;5580;50.106;8.702;2022-09-29T12:23:57;11.73;;;6.03;;
11054;SDS011;5580;50.106;8.702;2022-09-29T12:26:24;11.73;;;6.27;;
11054;SDS011;5580;50.106;8.702;2022-09-29T12:31:25;9.13;;;5.57;;
11054;SDS011;5580;50.106;8.702;2022-09-29T12:33:57;9.17;;;5.70;;
11054;SDS011;5580;50.106;8.702;2022-09-29T12:36:41;11.00;;;5.73;;
11054;SDS011;5580;50.106;8.702;2022-09-29T12:42:22;9.93;;;5.20;;
11054;SDS011;5580;50.106;8.702;2022-09-29T12:45:06;10.30;;;5.20;;
11054;SDS011;5580;50.106;8.702;2022-09-29T12:47:49;8.17;;;4.80;;
11054;SDS011;5580;50.106;8.702;2022-09-29T12:50:27;7.97;;;4.50;;
11054;SDS011;5580;50.106;8.702;2022-09-29T12:52:59;7.90;;;4.70;;
11054;SDS011;5580;50.106;8.702;2022-09-29T12:58:37;9.97;;;4.43;;
11054;SDS011;5580;50.106;8.702;2022-09-29T13:01:49;9.33;;;4.47;;
11054;SDS011;5580;50.106;8.702;2022-09-29T13:09:30;10.03;;;4.30;;
11054;SDS011;5580;50.106;8.702;2022-09-29T13:28:47;7.53;;;4.70;;
11054;SDS011;5580;50.106;8.702;2022-09-29T13:31:19;9.60;;;4.90;;
11054;SDS011;5580;50.106;8.702;2022-09-29T13:33:53;9.13;;;4.50;;
11054;SDS011;5580;50.106;8.702;2022-09-29T13:36:28;7.77;;;4.30;;
11054;SDS011;5580;50.106;8.702;2022-09-29T13:39:04;7.03;;;4.07;;
11054;SDS011;5580;50.106;8.702;2022-09-29T13:41:42;7.17;;;4.20;;
11054;SDS011;5580;50.106;8.702;2022-09-29T13:46:42;10.03;;;4.37;;
11054;SDS011;5580;50.106;8.702;2022-09-29T13:51:44;5.07;;;3.43;;
11054;SDS011;5580;50.106;8.702;2022-09-29T13:59:39;8.93;;;4.70;;
11054;SDS011;5580;50.106;8.702;2022-09-29T14:02:17;7.93;;;4.70;;
11054;SDS011;5580;50.106;8.702;2022-09-29T14:04:51;8.53;;;4.63;;
11054;SDS011;5580;50.106;8.702;2022-09-29T14:07:36;9.10;;;4.80;;
11054;SDS011;5580;50.106;8.702;2022-09-29T14:15:25;8.53;;;4.60;;
11054;SDS011;5580;50.106;8.702;2022-09-29T14:17:54;7.93;;;4.37;;
11054;SDS011;5580;50.106;8.702;2022-09-29T14:20:24;8.20;;;4.70;;
11054;SDS011;5580;50.106;8.702;2022-09-29T14:22:55;7.90;;;4.73;;
11054;SDS011;5580;50.106;8.702;2022-09-29T14:32:58;10.00;;;5.13;;
11054;SDS011;5580;50.106;8.702;2022-09-29T14:35:31;10.00;;;5.20;;
11054;SDS011;5580;50.106;8.702;2022-09-29T14:40:57;8.03;;;4.97;;
11054;SDS011;5580;50.106;8.702;2022-09-29T14:52:35;9.90;;;5.47;;
11054;SDS011;5580;50.106;8.702;2022-09-29T15:06:19;9.13;;;5.43;;
11054;SDS011;5580;50.106;8.702;2022-09-29T15:09:00;11.57;;;6.03;;
11054;SDS011;5580;50.106;8.702;2022-09-29T15:11:44;9.87;;;4.73;;
11054;SDS011;5580;50.106;8.702;2022-09-29T15:14:31;8.00;;;4.40;;
11054;SDS011;5580;50.106;8.702;2022-09-29T15:27:17;7.83;;;4.03;;
11054;SDS011;5580;50.106;8.702;2022-09-29T15:29:45;6.23;;;3.93;;
11054;SDS011;5580;50.106;8.702;2022-09-29T15:32:16;9.87;;;4.17;;
11054;SDS011;5580;50.106;8.702;2022-09-29T15:34:49;10.30;;;4.30;;
11054;SDS011;5580;50.106;8.702;2022-09-29T15:37:16;10.00;;;4.20;;
11054;SDS011;5580;50.106;8.702;2022-09-29T15:39:50;9.17;;;4.40;;
11054;SDS011;5580;50.106;8.702;2022-09-29T15:42:20;8.70;;;4.30;;
11054;SDS011;5580;50.106;8.702;2022-09-29T15:45:00;11.00;;;4.57;;
11054;SDS011;5580;50.106;8.702;2022-09-29T15:49:58;9.73;;;4.40;;
11054;SDS011;5580;50.106;8.702;2022-09-29T15:52:47;7.83;;;4.40;;
11054;SDS011;5580;50.106;8.702;2022-09-29T15:55:16;7.20;;;3.77;;
11054;SDS011;5580;50.106;8.702;2022-09-29T15:57:44;7.20;;;3.90;;
11054;SDS011;5580;50.106;8.702;2022-09-29T16:05:25;7.90;;;3.77;;
11054;SDS011;5580;50.106;8.702;2022-09-29T16:08:36;6.37;;;3.90;;
11054;SDS011;5580;50.106;8.702;2022-09-29T16:13:20;5.50;;;3.70;;
11054;SDS011;5580;50.106;8.702;2022-09-29T16:15:53;6.83;;;3.90;;
11054;SDS011;5580;50.106;8.702;2022-09-29T16:20:54;7.20;;;3.90;;
11054;SDS011;5580;50.106;8.702;2022-09-29T16:23:33;4.63;;;3.50;;
11054;SDS011;5580;50.106;8.702;2022-09-29T16:28:31;9.47;;;4.20;;
11054;SDS011;5580;50.106;8.702;2022-09-29T16:31:03;7.03;;;3.90;;
11054;SDS011;5580;50.106;8.702;2022-09-29T16:33:30;7.40;;;3.77;;
11054;SDS011;5580;50.106;8.702;2022-09-29T16:38:46;5.10;;;3.40;;
11054;SDS011;5580;50.106;8.702;2022-09-29T16:43:48;6.33;;;3.30;;
11054;SDS011;5580;50.106;8.702;2022-09-29T16:46:20;6.50;;;3.73;;
11054;SDS011;5580;50.106;8.702;2022-09-29T16:48:47;7.20;;;3.40;;
11054;SDS011;5580;50.106;8.702;2022-09-29T16:51:15;5.70;;;3.23;;
11054;SDS011;5580;50.106;8.702;2022-09-29T16:53:42;6.53;;;3.97;;
11054;SDS011;5580;50.106;8.702;2022-09-29T16:56:15;7.80;;;3.80;;
11054;SDS011;5580;50.106;8.702;2022-09-29T16:59:03;6.33;;;3.87;;
11054;SDS011;5580;50.106;8.702;2022-09-29T17:01:37;9.33;;;4.63;;
11054;SDS011;5580;50.106;8.702;2022-09-29T17:04:05;8.87;;;4.97;;
11054;SDS011;5580;50.106;8.702;2022-09-29T17:06:31;8.23;;;4.60;;
11054;SDS011;5580;50.106;8.702;2022-09-29T17:08:57;9.63;;;5.30;;
11054;SDS011;5580;50.106;8.702;2022-09-29T17:11:23;11.43;;;5.70;;
11054;SDS011;5580;50.106;8.702;2022-09-29T17:13:49;9.93;;;5.60;;
11054;SDS011;5580;50.106;8.702;2022-09-29T17:16:15;7.70;;;4.93;;
11054;SDS011;5580;50.106;8.702;2022-09-29T17:18:49;13.53;;;5.93;;
11054;SDS011;5580;50.106;8.702;2022-09-29T17:21:16;10.77;;;5.87;;
11054;SDS011;5580;50.106;8.702;2022-09-29T17:23:42;12.40;;;6.03;;
11054;SDS011;5580;50.106;8.702;2022-09-29T17:26:18;9.03;;;5.60;;
11054;SDS011;5580;50.106;8.702;2022-09-29T17:29:07;14.00;;;6.40;;
11054;SDS011;5580;50.106;8.702;2022-09-29T17:31:33;15.47;;;7.17;;
11054;SDS011;5580;50.106;8.702;2022-09-29T17:33:59;15.83;;;8.47;;
11054;SDS011;5580;50.106;8.702;2022-09-29T17:36:26;16.77;;;9.43;;
11054;SDS011;5580;50.106;8.702;2022-09-29T17:38:52;17.70;;;9.30;;
11054;SDS011;5580;50.106;8.702;2022-09-29T17:41:18;19.33;;;9.13;;
11054;SDS011;5580;50.106;8.702;2022-09-29T17:43:44;13.07;;;7.37;;
11054;SDS011;5580;50.106;8.702;2022-09-29T17:46:10;14.93;;;7.40;;
11054;SDS011;5580;50.106;8.702;2022-09-29T17:48:38;14.87;;;6.93;;
11054;SDS011;5580;50.106;8.702;2022-09-29T17:51:05;14.47;;;7.17;;
11054;SDS011;5580;50.106;8.702;2022-09-29T17:53:37;14.00;;;7.10;;
11054;SDS011;5580;50.106;8.702;2022-09-29T17:56:03;14.40;;;6.87;;
11054;SDS011;5580;50.106;8.702;2022-09-29T17:58:29;12.47;;;6.53;;
11054;SDS011;5580;50.106;8.702;2022-09-29T18:00:55;12.00;;;6.80;;
11054;SDS011;5580;50.106;8.702;2022-09-29T18:03:21;16.23;;;6.43;;
11054;SDS011;5580;50.106;8.702;2022-09-29T18:05:56;14.23;;;6.80;;
11054;SDS011;5580;50.106;8.702;2022-09-29T18:08:24;13.57;;;7.23;;
11054;SDS011;5580;50.106;8.702;2022-09-29T18:10:58;12.30;;;6.60;;
11054;SDS011;5580;50.106;8.702;2022-09-29T18:13:25;15.13;;;6.93;;
11054;SDS011;5580;50.106;8.702;2022-09-29T18:15:53;15.73;;;8.53;;
11054;SDS011;5580;50.106;8.702;2022-09-29T18:18:20;17.47;;;9.57;;
11054;SDS011;5580;50.106;8.702;2022-09-29T18:20:46;16.07;;;9.73;;
11054;SDS011;5580;50.106;8.702;2022-09-29T18:23:14;14.90;;;8.80;;
11054;SDS011;5580;50.106;8.702;2022-09-29T18:25:40;16.17;;;8.77;;
11054;SDS011;5580;50.106;8.702;2022-09-29T18:28:08;16.00;;;8.53;;
11054;SDS011;5580;50.106;8.702;2022-09-29T18:30:35;17.77;;;8.50;;
11054;SDS011;5580;50.106;8.702;2022-09-29T18:33:04;14.63;;;7.83;;